Time;durP1;ratioP1;P1;durP2;ratioP2;P2;SDS_P1;SDS_P2;PMS_P1;PMS_P2;Temp;Humidity;BMP_temperature;BMP_pressure;BME280_temperature;BME280_humidity;BME280_pressure;Samples;Min_cycle;Max_cycle;Signal;HPM_P1;HPM_P2
2022/08/30 06:04:27;;;;;;;;;;;14.50;99.90;;;;;;4901961;29;19937;-78
2022/08/30 06:06:53;;;;;;;;;;;14.50;99.90;;;;;;4895572;29;19927;-79
2022/08/30 06:09:18;;;;;;;;;;;14.60;99.90;;;;;;4893162;29;19927;-77
2022/08/30 06:11:44;;;;;;;;;;;14.70;99.90;;;;;;4915243;29;19923;-78
2022/08/30 06:14:10;;;;;;;;;;;14.80;99.90;;;;;;4911496;29;20445;-78
2022/08/30 06:16:37;;;;;;;;;;;14.90;99.90;;;;;;4912514;29;19930;-80
2022/08/30 06:19:03;;;;;;;;;;;14.90;99.90;;;;;;4895907;29;20014;-78
2022/08/30 06:21:30;;;;;;;;;;;15.00;99.90;;;;;;4892721;29;20397;-78
2022/08/30 06:23:57;;;;;;;;;;;15.10;99.90;;;;;;4908951;29;19978;-78
2022/08/30 06:26:22;;;;;;;;;;;15.10;99.90;;;;;;4912215;29;20263;-78
2022/08/30 06:28:48;;;;;;;;;;;15.10;99.90;;;;;;4910944;29;19927;-78
2022/08/30 06:31:14;;;;;;;;;;;15.20;99.90;;;;;;4893243;29;20342;-77
2022/08/30 06:33:40;;;;;;;;;;;15.30;99.90;;;;;;4895711;29;19986;-78
2022/08/30 06:36:07;;;;;;;;;;;15.30;99.90;;;;;;4910575;29;19927;-78
2022/08/30 06:38:33;;;;;;;;;;;15.30;99.90;;;;;;4915772;29;20009;-78
2022/08/30 06:40:58;;;;;;;;;;;15.40;99.90;;;;;;4912842;29;20453;-78
2022/08/30 06:43:24;;;;;;;;;;;15.50;99.90;;;;;;4915770;29;20017;-78
2022/08/30 06:45:49;;;;;;;;;;;15.50;99.90;;;;;;4898426;29;19927;-78
2022/08/30 06:48:15;;;;;;;;;;;15.60;99.90;;;;;;4914323;29;19923;-77
2022/08/30 06:50:41;;;;;;;;;;;15.70;99.90;;;;;;4898245;29;19970;-78
2022/08/30 06:53:06;;;;;;;;;;;15.70;99.90;;;;;;4893044;29;19927;-77
2022/08/30 06:55:32;;;;;;;;;;;15.70;99.90;;;;;;4905909;29;19923;-77
2022/08/30 06:58:01;;;;;;;;;;;15.80;99.90;;;;;;4912201;29;19995;-78
2022/08/30 07:00:26;;;;;;;;;;;15.90;99.90;;;;;;4915365;29;19923;-78
2022/08/30 07:02:52;;;;;;;;;;;15.90;99.90;;;;;;4897119;29;20231;-78
2022/08/30 07:05:21;;;;;;;;;;;16.00;99.90;;;;;;4913204;29;19977;-78
2022/08/30 07:07:47;;;;;;;;;;;16.10;99.90;;;;;;4911821;29;19923;-77
2022/08/30 07:10:13;;;;;;;;;;;16.20;99.90;;;;;;4897550;29;20016;-77
2022/08/30 07:12:39;;;;;;;;;;;16.20;99.90;;;;;;4913444;29;19954;-77
2022/08/30 07:15:05;;;;;;;;;;;16.30;99.90;;;;;;4913583;29;20026;-78
2022/08/30 07:20:15;;;;;;;;;;;16.40;99.90;;;;;;4907612;29;20294;-77
2022/08/30 07:22:43;;;;;;;;;;;16.50;99.90;;;;;;4903302;29;20018;-78
2022/08/30 07:25:08;;;;;;;;;;;16.50;99.90;;;;;;4906437;29;20009;-78
2022/08/30 07:27:34;;;;;;;;;;;16.60;99.90;;;;;;4913241;29;19931;-78
2022/08/30 07:30:01;;;;;;;;;;;16.60;99.90;;;;;;4899079;29;20031;-77
2022/08/30 07:32:27;;;;;;;;;;;16.70;99.90;;;;;;4915731;29;19930;-77
2022/08/30 07:34:52;;;;;;;;;;;16.80;99.90;;;;;;4914283;29;19927;-76
2022/08/30 07:37:18;;;;;;;;;;;16.80;99.90;;;;;;4897447;29;20405;-78
2022/08/30 07:39:43;;;;;;;;;;;16.90;99.90;;;;;;4898321;29;19978;-78
2022/08/30 07:42:09;;;;;;;;;;;16.90;99.90;;;;;;4913114;29;19930;-83
2022/08/30 07:44:34;;;;;;;;;;;17.00;99.90;;;;;;4897792;29;20397;-77
2022/08/30 07:47:00;;;;;;;;;;;17.10;99.90;;;;;;4914960;29;20306;-78
2022/08/30 07:49:25;;;;;;;;;;;17.20;99.90;;;;;;4911722;29;19939;-78
2022/08/30 07:51:51;;;;;;;;;;;17.20;99.90;;;;;;4912004;29;19919;-77
2022/08/30 07:54:17;;;;;;;;;;;17.30;99.90;;;;;;4915398;29;19927;-78
2022/08/30 07:56:42;;;;;;;;;;;17.30;99.90;;;;;;4907301;29;19931;-78
2022/08/30 07:59:08;;;;;;;;;;;17.40;99.90;;;;;;4907247;29;19923;-77
2022/08/30 08:01:33;;;;;;;;;;;17.40;99.90;;;;;;4903552;29;19927;-77
2022/08/30 08:03:59;;;;;;;;;;;17.50;99.90;;;;;;4884293;29;19923;-76
2022/08/30 08:06:26;;;;;;;;;;;17.50;99.90;;;;;;4900078;29;19930;-78
2022/08/30 08:08:52;;;;;;;;;;;17.60;99.90;;;;;;4900792;29;19938;-76
2022/08/30 08:11:23;;;;;;;;;;;17.60;99.90;;;;;;4904007;29;19923;-77
2022/08/30 08:13:49;;;;;;;;;;;17.60;99.90;;;;;;4903270;29;19923;-77
2022/08/30 08:16:14;;;;;;;;;;;17.70;99.90;;;;;;4904682;29;19962;-78
2022/08/30 08:18:40;;;;;;;;;;;17.70;99.90;;;;;;4906628;29;19974;-77
2022/08/30 08:21:05;;;;;;;;;;;17.80;99.90;;;;;;4907970;29;19934;-77
2022/08/30 08:23:31;;;;;;;;;;;17.90;99.90;;;;;;4889698;29;19931;-77
2022/08/30 08:25:57;;;;;;;;;;;17.90;99.90;;;;;;4897614;29;20137;-77
2022/08/30 08:28:23;;;;;;;;;;;18.00;99.90;;;;;;4909274;29;19930;-75
2022/08/30 08:30:48;;;;;;;;;;;18.00;99.90;;;;;;4886534;29;19930;-74
2022/08/30 08:33:14;;;;;;;;;;;18.10;99.90;;;;;;4907430;29;20374;-76
2022/08/30 08:35:40;;;;;;;;;;;18.10;99.90;;;;;;4893178;29;20065;-75
2022/08/30 08:38:06;;;;;;;;;;;18.20;99.90;;;;;;4914503;29;19931;-75
2022/08/30 08:40:42;;;;;;;;;;;18.20;99.90;;;;;;4912326;29;19966;-75
2022/08/30 08:43:13;;;;;;;;;;;18.30;99.90;;;;;;4914885;29;19935;-75
2022/08/30 08:45:38;;;;;;;;;;;18.40;99.90;;;;;;4889138;29;20373;-75
2022/08/30 08:48:08;;;;;;;;;;;18.40;99.90;;;;;;4890740;29;19955;-75
2022/08/30 08:50:34;;;;;;;;;;;18.40;99.90;;;;;;4911152;29;19923;-76
2022/08/30 08:55:49;;;;;;;;;;;18.40;99.90;;;;;;4893550;29;19923;-78
2022/08/30 08:58:23;;;;;;;;;;;18.40;99.90;;;;;;4897516;29;19923;-76
2022/08/30 09:00:49;;;;;;;;;;;18.50;99.90;;;;;;4887948;29;20005;-76
2022/08/30 09:03:17;;;;;;;;;;;18.50;99.90;;;;;;4899143;29;20050;-77
2022/08/30 09:05:43;;;;;;;;;;;18.60;99.90;;;;;;4914835;29;19966;-76
2022/08/30 09:08:11;;;;;;;;;;;18.70;99.90;;;;;;4908197;29;20023;-75
2022/08/30 09:10:37;;;;;;;;;;;18.80;99.90;;;;;;4888021;29;20393;-76
2022/08/30 09:13:02;;;;;;;;;;;18.80;99.90;;;;;;4904318;29;19939;-75
2022/08/30 09:15:29;;;;;;;;;;;18.80;99.90;;;;;;4884864;29;19986;-74
2022/08/30 09:17:59;;;;;;;;;;;18.80;99.90;;;;;;4895481;29;20640;-75
2022/08/30 09:20:27;;;;;;;;;;;18.90;99.90;;;;;;4886689;29;19937;-75
2022/08/30 09:22:53;;;;;;;;;;;18.90;99.90;;;;;;4886056;29;19927;-75
2022/08/30 09:25:25;;;;;;;;;;;19.00;99.90;;;;;;4903392;29;20354;-75
2022/08/30 09:27:51;;;;;;;;;;;19.10;99.90;;;;;;4902024;29;19923;-75
2022/08/30 09:30:20;;;;;;;;;;;19.20;99.90;;;;;;4909452;29;19924;-75
2022/08/30 09:32:53;;;;;;;;;;;19.10;99.90;;;;;;4911595;29;19930;-75
2022/08/30 09:35:21;;;;;;;;;;;19.20;99.90;;;;;;4896470;29;20280;-77
2022/08/30 09:38:02;;;;;;;;;;;19.30;99.90;;;;;;4910938;29;20338;-75
2022/08/30 09:40:32;;;;;;;;;;;19.30;99.90;;;;;;4898608;29;20026;-75
2022/08/30 09:43:03;;;;;;;;;;;19.30;99.90;;;;;;4907226;29;19930;-75
2022/08/30 09:45:34;;;;;;;;;;;19.40;99.90;;;;;;4892928;29;19923;-75
2022/08/30 09:48:19;;;;;;;;;;;19.40;99.90;;;;;;4911309;29;19930;-76
2022/08/30 09:50:45;;;;;;;;;;;19.30;99.90;;;;;;4894148;29;20469;-75
2022/08/30 09:53:18;;;;;;;;;;;19.30;99.90;;;;;;4901007;29;19970;-76
2022/08/30 09:55:58;;;;;;;;;;;19.20;99.90;;;;;;4911336;29;20381;-75
2022/08/30 09:58:39;;;;;;;;;;;19.20;99.90;;;;;;4907722;29;20396;-74
2022/08/30 10:01:04;;;;;;;;;;;19.20;99.90;;;;;;4893240;29;20409;-75
2022/08/30 10:03:52;;;;;;;;;;;19.20;99.90;;;;;;4894776;29;19927;-74
2022/08/30 10:06:27;;;;;;;;;;;19.20;99.90;;;;;;4897546;29;19962;-75
2022/08/30 10:09:05;;;;;;;;;;;19.20;99.90;;;;;;4911087;29;20270;-76
2022/08/30 10:11:35;;;;;;;;;;;19.20;99.90;;;;;;4915283;29;20017;-75
2022/08/30 10:14:12;;;;;;;;;;;19.10;99.90;;;;;;4895449;29;19923;-74
2022/08/30 10:16:38;;;;;;;;;;;19.20;99.90;;;;;;4917364;29;19930;-75
2022/08/30 10:19:09;;;;;;;;;;;19.30;99.90;;;;;;4902435;29;21535;-74
2022/08/30 10:21:39;;;;;;;;;;;19.50;99.90;;;;;;4885671;29;19924;-74
2022/08/30 10:24:07;;;;;;;;;;;19.60;99.90;;;;;;4897662;29;19923;-74
2022/08/30 10:26:38;;;;;;;;;;;19.70;99.90;;;;;;4885407;29;20010;-76
2022/08/30 10:29:10;;;;;;;;;;;19.80;99.90;;;;;;4899660;29;19923;-76
2022/08/30 10:31:40;;;;;;;;;;;20.00;99.90;;;;;;4896458;29;19919;-75
2022/08/30 10:34:13;;;;;;;;;;;20.10;99.90;;;;;;4899088;29;19927;-74
2022/08/30 10:36:43;;;;;;;;;;;20.20;99.90;;;;;;4917259;29;19962;-76
2022/08/30 10:39:12;;;;;;;;;;;20.30;99.90;;;;;;4894997;29;19974;-75
2022/08/30 10:41:43;;;;;;;;;;;20.30;99.90;;;;;;4899260;29;19974;-75
2022/08/30 10:44:26;;;;;;;;;;;20.30;99.90;;;;;;4882299;29;19923;-75
2022/08/30 10:47:01;;;;;;;;;;;20.20;99.90;;;;;;4898016;29;19924;-75
2022/08/30 10:49:28;;;;;;;;;;;20.20;99.90;;;;;;4895431;29;19927;-75
2022/08/30 10:52:00;;;;;;;;;;;20.10;99.90;;;;;;4896924;29;19925;-75
2022/08/30 10:54:30;;;;;;;;;;;20.10;99.90;;;;;;4927576;29;19923;-75
2022/08/30 10:56:56;;;;;;;;;;;20.20;99.90;;;;;;4911707;29;19934;-76
2022/08/30 10:59:22;;;;;;;;;;;20.40;99.90;;;;;;4915186;29;19925;-75
2022/08/30 11:02:09;;;;;;;;;;;20.50;99.90;;;;;;4881157;29;20351;-77
2022/08/30 11:04:53;;;;;;;;;;;20.60;99.90;;;;;;4897938;29;19923;-75
2022/08/30 11:07:45;;;;;;;;;;;20.70;99.90;;;;;;4921454;29;20434;-75
2022/08/30 11:10:20;;;;;;;;;;;20.80;99.90;;;;;;4880692;29;19923;-76
2022/08/30 11:12:48;;;;;;;;;;;20.90;99.90;;;;;;4884481;29;19919;-75
2022/08/30 11:15:19;;;;;;;;;;;20.90;99.90;;;;;;4898875;29;20239;-74
2022/08/30 11:17:44;;;;;;;;;;;20.90;99.90;;;;;;4914935;29;20054;-75
2022/08/30 11:20:21;;;;;;;;;;;21.00;99.90;;;;;;4896920;29;20418;-76
2022/08/30 11:23:05;;;;;;;;;;;21.00;99.70;;;;;;4905505;29;19931;-76
2022/08/30 11:26:03;;;;;;;;;;;21.10;99.70;;;;;;4910255;29;19930;-76
2022/08/30 11:28:52;;;;;;;;;;;21.20;99.40;;;;;;4883944;29;19930;-76
2022/08/30 11:31:17;;;;;;;;;;;21.20;99.10;;;;;;4891907;29;20078;-76
2022/08/30 11:33:44;;;;;;;;;;;21.40;99.20;;;;;;4899147;29;20001;-75
2022/08/30 11:36:31;;;;;;;;;;;21.50;99.50;;;;;;4916106;29;19927;-75
2022/08/30 11:39:07;;;;;;;;;;;21.60;99.50;;;;;;4898398;29;19930;-75
2022/08/30 11:41:36;;;;;;;;;;;21.80;99.60;;;;;;4898526;29;20353;-73
2022/08/30 11:44:25;;;;;;;;;;;22.00;99.00;;;;;;4899135;29;19927;-75
2022/08/30 11:46:53;;;;;;;;;;;22.20;98.80;;;;;;4928438;29;19923;-74
2022/08/30 11:49:19;;;;;;;;;;;22.30;98.40;;;;;;4915802;29;19994;-75
2022/08/30 11:52:00;;;;;;;;;;;22.50;98.40;;;;;;4916154;29;19934;-75
2022/08/30 11:54:25;;;;;;;;;;;22.60;98.00;;;;;;4896924;29;20362;-74
2022/08/30 11:56:54;;;;;;;;;;;22.70;98.20;;;;;;4897749;29;19927;-75
2022/08/30 11:59:24;;;;;;;;;;;22.90;97.70;;;;;;4916168;29;19945;-75
2022/08/30 12:01:50;;;;;;;;;;;23.00;97.90;;;;;;4926467;29;19934;-74
2022/08/30 12:04:15;;;;;;;;;;;23.10;97.20;;;;;;4915951;29;19931;-75
2022/08/30 12:06:41;;;;;;;;;;;23.20;97.30;;;;;;4915917;29;19927;-75
2022/08/30 12:09:25;;;;;;;;;;;23.40;97.10;;;;;;4914905;29;19927;-75
2022/08/30 12:11:53;;;;;;;;;;;23.50;97.10;;;;;;4913455;29;19927;-74
2022/08/30 12:14:34;;;;;;;;;;;23.70;96.50;;;;;;4915793;29;20429;-74
2022/08/30 12:19:46;;;;;;;;;;;24.00;96.10;;;;;;4916156;29;19987;-74
2022/08/30 12:22:15;;;;;;;;;;;24.10;95.20;;;;;;4915159;29;20018;-74
2022/08/30 12:24:42;;;;;;;;;;;23.90;95.10;;;;;;4914885;29;19930;-74
2022/08/30 12:27:22;;;;;;;;;;;23.80;95.30;;;;;;4914715;29;20017;-75
2022/08/30 12:29:52;;;;;;;;;;;23.80;95.40;;;;;;4914737;29;19930;-75
2022/08/30 12:32:21;;;;;;;;;;;23.90;95.30;;;;;;4897586;29;19926;-74
2022/08/30 12:35:06;;;;;;;;;;;24.00;94.90;;;;;;4897522;29;19950;-74
2022/08/30 12:37:36;;;;;;;;;;;24.20;94.60;;;;;;4914338;29;19919;-74
2022/08/30 12:40:16;;;;;;;;;;;24.20;94.60;;;;;;4898313;29;19934;-75
2022/08/30 12:42:49;;;;;;;;;;;24.20;94.30;;;;;;4897467;29;20441;-75
2022/08/30 12:45:19;;;;;;;;;;;24.20;94.60;;;;;;4915007;29;19930;-75
2022/08/30 12:47:45;;;;;;;;;;;24.10;94.40;;;;;;4897824;29;20006;-76
2022/08/30 12:50:12;;;;;;;;;;;24.10;94.40;;;;;;4915004;29;20014;-75
2022/08/30 12:52:43;;;;;;;;;;;24.00;94.50;;;;;;4897630;29;19923;-75
2022/08/30 12:55:11;;;;;;;;;;;24.00;93.90;;;;;;4914171;29;20066;-75
2022/08/30 12:57:37;;;;;;;;;;;23.90;94.20;;;;;;4911800;29;19934;-75
2022/08/30 13:00:04;;;;;;;;;;;23.90;94.30;;;;;;4913949;29;19927;-75
2022/08/30 13:02:52;;;;;;;;;;;24.00;94.10;;;;;;4914149;29;19923;-75
2022/08/30 13:05:26;;;;;;;;;;;24.00;93.80;;;;;;4914221;29;19929;-74
2022/08/30 13:08:06;;;;;;;;;;;23.90;93.80;;;;;;4914898;29;19927;-75
2022/08/30 13:10:31;;;;;;;;;;;23.80;93.60;;;;;;4913593;29;20041;-75
2022/08/30 13:13:01;;;;;;;;;;;23.70;93.80;;;;;;4913398;29;20360;-75
2022/08/30 13:15:30;;;;;;;;;;;23.70;93.80;;;;;;4897814;29;19923;-75
2022/08/30 13:18:14;;;;;;;;;;;23.60;93.60;;;;;;4915522;29;19922;-75
2022/08/30 13:20:40;;;;;;;;;;;23.50;94.10;;;;;;4914466;29;19930;-75
2022/08/30 13:23:07;;;;;;;;;;;23.60;94.30;;;;;;4893501;29;20302;-75
2022/08/30 13:25:33;;;;;;;;;;;23.60;94.30;;;;;;4893222;29;20025;-75
2022/08/30 13:28:00;;;;;;;;;;;23.70;94.00;;;;;;4896868;29;20009;-76
2022/08/30 13:30:25;;;;;;;;;;;23.70;93.50;;;;;;4912633;29;19923;-76
2022/08/30 13:32:51;;;;;;;;;;;23.70;93.90;;;;;;4917817;29;19930;-75
2022/08/30 13:35:16;;;;;;;;;;;23.70;94.20;;;;;;4914211;29;20366;-76
2022/08/30 13:37:42;;;;;;;;;;;23.70;93.50;;;;;;4894837;29;19933;-76
2022/08/30 13:40:09;;;;;;;;;;;23.60;93.60;;;;;;4892990;29;19935;-76
2022/08/30 13:42:34;;;;;;;;;;;23.60;93.30;;;;;;4912552;29;19923;-77
2022/08/30 13:45:00;;;;;;;;;;;23.40;93.60;;;;;;4913254;29;20354;-78
2022/08/30 13:47:25;;;;;;;;;;;23.50;94.10;;;;;;4912465;29;20335;-77
2022/08/30 13:49:51;;;;;;;;;;;23.60;94.00;;;;;;4914062;29;19969;-78
2022/08/30 13:52:21;;;;;;;;;;;23.60;94.00;;;;;;4893149;29;19924;-77
2022/08/30 13:54:47;;;;;;;;;;;23.50;94.10;;;;;;4884179;29;19930;-76
2022/08/30 13:57:13;;;;;;;;;;;23.60;94.20;;;;;;4911777;29;19926;-77
2022/08/30 13:59:38;;;;;;;;;;;23.70;94.20;;;;;;4914360;29;20006;-76
2022/08/30 14:02:04;;;;;;;;;;;23.70;93.60;;;;;;4913286;29;20382;-76
2022/08/30 14:04:29;;;;;;;;;;;23.70;93.50;;;;;;4914367;29;19970;-76
2022/08/30 14:06:55;;;;;;;;;;;23.80;94.10;;;;;;4913637;29;19923;-75
2022/08/30 14:09:20;;;;;;;;;;;23.80;93.80;;;;;;4912949;29;19927;-76
2022/08/30 14:11:46;;;;;;;;;;;23.90;94.10;;;;;;4903380;29;19959;-75
2022/08/30 14:14:11;;;;;;;;;;;23.90;93.90;;;;;;4912458;29;20000;-75
2022/08/30 14:16:38;;;;;;;;;;;23.90;93.60;;;;;;4892522;29;19931;-75
2022/08/30 14:19:04;;;;;;;;;;;23.90;93.70;;;;;;4907124;29;19930;-75
2022/08/30 14:21:30;;;;;;;;;;;23.90;94.30;;;;;;4911733;29;19923;-75
2022/08/30 14:23:56;;;;;;;;;;;23.90;94.50;;;;;;4910615;29;20515;-76
2022/08/30 14:26:27;;;;;;;;;;;24.10;94.80;;;;;;4896491;29;19927;-77
2022/08/30 14:28:53;;;;;;;;;;;24.40;94.70;;;;;;4893479;29;19938;-75
2022/08/30 14:31:18;;;;;;;;;;;24.80;94.80;;;;;;4890768;29;19923;-76
2022/08/30 14:33:44;;;;;;;;;;;25.10;94.50;;;;;;4912884;29;19926;-76
2022/08/30 14:36:11;;;;;;;;;;;25.20;93.60;;;;;;4893457;29;20013;-76
2022/08/30 14:38:36;;;;;;;;;;;25.10;92.80;;;;;;4913976;29;19919;-75
2022/08/30 14:41:03;;;;;;;;;;;24.90;92.60;;;;;;4913692;29;19927;-76
2022/08/30 14:43:28;;;;;;;;;;;24.70;92.50;;;;;;4895592;29;19922;-76
2022/08/30 14:45:56;;;;;;;;;;;24.70;93.00;;;;;;4909304;29;20465;-76
2022/08/30 14:48:21;;;;;;;;;;;24.80;93.10;;;;;;4893414;29;19987;-76
2022/08/30 14:50:47;;;;;;;;;;;24.80;92.20;;;;;;4907171;29;20370;-76
2022/08/30 14:53:12;;;;;;;;;;;24.60;91.90;;;;;;4912645;29;20001;-77
2022/08/30 14:55:39;;;;;;;;;;;24.40;91.90;;;;;;4893605;29;19945;-77
2022/08/30 14:58:05;;;;;;;;;;;24.20;92.10;;;;;;4913840;29;19962;-77
2022/08/30 15:00:31;;;;;;;;;;;24.10;93.10;;;;;;4896545;29;19958;-80
2022/08/30 15:02:56;;;;;;;;;;;24.40;93.30;;;;;;4916828;29;19981;-76
2022/08/30 15:05:22;;;;;;;;;;;24.50;92.70;;;;;;4896586;29;19984;-78
2022/08/30 15:07:49;;;;;;;;;;;24.50;92.30;;;;;;4894082;29;19931;-78
2022/08/30 15:10:17;;;;;;;;;;;24.30;92.00;;;;;;4891368;29;19931;-78
2022/08/30 15:12:44;;;;;;;;;;;24.00;92.10;;;;;;4895307;29;20354;-77
2022/08/30 15:15:13;;;;;;;;;;;23.80;92.20;;;;;;4892348;29;19930;-78
2022/08/30 15:17:38;;;;;;;;;;;23.80;93.80;;;;;;4893311;29;19930;-76
2022/08/30 15:20:04;;;;;;;;;;;24.30;93.80;;;;;;4894789;29;20018;-76
2022/08/30 15:22:29;;;;;;;;;;;24.50;93.50;;;;;;4895697;29;20367;-75
2022/08/30 15:24:55;;;;;;;;;;;24.80;93.50;;;;;;4892219;29;19927;-75
2022/08/30 15:27:22;;;;;;;;;;;25.10;93.10;;;;;;4888694;29;20290;-79
2022/08/30 15:29:48;;;;;;;;;;;25.20;92.50;;;;;;4911393;29;19927;-78
2022/08/30 15:32:13;;;;;;;;;;;25.10;91.90;;;;;;4892181;29;19924;-77
2022/08/30 15:34:39;;;;;;;;;;;25.30;93.00;;;;;;4888894;29;19938;-77
2022/08/30 15:37:04;;;;;;;;;;;26.10;93.40;;;;;;4888669;29;20537;-76
2022/08/30 15:39:30;;;;;;;;;;;26.40;91.60;;;;;;4888924;29;19923;-77
2022/08/30 15:41:56;;;;;;;;;;;26.30;90.60;;;;;;4892967;29;19927;-77
2022/08/30 15:44:22;;;;;;;;;;;25.90;89.90;;;;;;4892321;29;19947;-78
2022/08/30 15:46:47;;;;;;;;;;;25.50;89.40;;;;;;4891175;29;19973;-78
2022/08/30 15:49:15;;;;;;;;;;;25.20;90.00;;;;;;4897121;29;20305;-78
2022/08/30 15:51:42;;;;;;;;;;;24.90;89.70;;;;;;4896937;29;19923;-77
2022/08/30 15:54:07;;;;;;;;;;;24.50;90.20;;;;;;4891545;29;19986;-76
2022/08/30 15:56:33;;;;;;;;;;;24.20;90.70;;;;;;4906739;29;19924;-78
2022/08/30 15:58:59;;;;;;;;;;;23.90;91.00;;;;;;4889041;29;19935;-79
2022/08/30 16:01:24;;;;;;;;;;;23.70;91.60;;;;;;4887145;29;20047;-78
2022/08/30 16:03:54;;;;;;;;;;;23.50;92.00;;;;;;4885213;29;19995;-78
2022/08/30 16:06:21;;;;;;;;;;;23.40;92.30;;;;;;4886868;29;20010;-79
2022/08/30 16:08:47;;;;;;;;;;;23.20;92.60;;;;;;4894028;29;20011;-79
2022/08/30 16:11:14;;;;;;;;;;;23.00;93.00;;;;;;4890389;29;21689;-77
2022/08/30 16:13:39;;;;;;;;;;;22.90;93.40;;;;;;4885306;29;19923;-78
2022/08/30 16:16:06;;;;;;;;;;;22.70;93.70;;;;;;4890435;29;19938;-78
2022/08/30 16:18:31;;;;;;;;;;;22.60;94.10;;;;;;4889702;29;19959;-77
2022/08/30 16:21:05;;;;;;;;;;;22.50;94.60;;;;;;4889929;29;20577;-77
2022/08/30 16:23:31;;;;;;;;;;;22.40;94.80;;;;;;4892865;29;19930;-77
2022/08/30 16:25:56;;;;;;;;;;;22.30;95.10;;;;;;4890507;29;19923;-78
2022/08/30 16:28:22;;;;;;;;;;;22.30;95.10;;;;;;4885595;29;19941;-80
2022/08/30 16:30:47;;;;;;;;;;;22.20;95.10;;;;;;4892640;29;20287;-77
2022/08/30 16:33:13;;;;;;;;;;;22.10;95.20;;;;;;4888204;29;19919;-77
2022/08/30 16:35:38;;;;;;;;;;;22.00;95.40;;;;;;4890996;29;19932;-78
2022/08/30 16:38:04;;;;;;;;;;;21.90;95.50;;;;;;4897336;29;19990;-79
2022/08/30 16:40:29;;;;;;;;;;;21.90;95.70;;;;;;4889633;29;19923;-78
2022/08/30 16:42:55;;;;;;;;;;;21.90;96.60;;;;;;4885489;29;20306;-79
2022/08/30 16:45:20;;;;;;;;;;;22.40;97.40;;;;;;4886507;29;20015;-77
2022/08/30 16:47:46;;;;;;;;;;;22.80;96.80;;;;;;4887911;29;19938;-79
2022/08/30 16:50:15;;;;;;;;;;;23.40;96.80;;;;;;4899371;29;20017;-78
2022/08/30 16:52:41;;;;;;;;;;;24.00;96.20;;;;;;4890622;29;20344;-78
2022/08/30 16:55:07;;;;;;;;;;;24.60;95.10;;;;;;4891365;29;19923;-80
2022/08/30 16:57:32;;;;;;;;;;;24.70;93.20;;;;;;4886270;29;19932;-78
2022/08/30 16:59:58;;;;;;;;;;;24.60;92.50;;;;;;4888920;29;19935;-77
2022/08/30 17:02:23;;;;;;;;;;;24.30;92.10;;;;;;4901951;29;19923;-77
2022/08/30 17:04:49;;;;;;;;;;;24.00;91.60;;;;;;4893666;29;19927;-78
2022/08/30 17:07:14;;;;;;;;;;;23.70;91.50;;;;;;4881038;29;20395;-78
2022/08/30 17:09:40;;;;;;;;;;;23.30;91.50;;;;;;4884239;29;19927;-79
2022/08/30 17:12:05;;;;;;;;;;;23.10;91.50;;;;;;4891838;29;19939;-77
2022/08/30 17:14:31;;;;;;;;;;;22.80;91.50;;;;;;4888102;29;19923;-78
2022/08/30 17:16:57;;;;;;;;;;;22.50;91.70;;;;;;4883205;29;19927;-77
2022/08/30 17:19:23;;;;;;;;;;;22.30;92.00;;;;;;4893245;29;19927;-78
2022/08/30 17:21:48;;;;;;;;;;;22.10;92.30;;;;;;4893407;29;19930;-78
2022/08/30 17:24:14;;;;;;;;;;;21.90;92.50;;;;;;4893848;29;19927;-78
2022/08/30 17:26:39;;;;;;;;;;;21.70;92.50;;;;;;4894205;29;19919;-78
2022/08/30 17:29:05;;;;;;;;;;;21.60;92.60;;;;;;4890013;29;19978;-78
2022/08/30 17:31:30;;;;;;;;;;;21.40;92.80;;;;;;4891098;29;20007;-78
2022/08/30 17:33:57;;;;;;;;;;;21.30;92.90;;;;;;4894931;29;19923;-78
2022/08/30 17:36:23;;;;;;;;;;;21.20;92.90;;;;;;4895913;29;19983;-78
2022/08/30 17:38:48;;;;;;;;;;;21.10;93.20;;;;;;4895305;29;19971;-78
2022/08/30 17:41:14;;;;;;;;;;;21.00;93.40;;;;;;4892705;29;19983;-78
2022/08/30 17:43:39;;;;;;;;;;;21.00;93.60;;;;;;4901168;29;19978;-77
2022/08/30 17:46:06;;;;;;;;;;;20.90;93.80;;;;;;4900964;29;20057;-77
2022/08/30 17:48:32;;;;;;;;;;;20.80;93.70;;;;;;4894790;29;20037;-77
2022/08/30 17:50:57;;;;;;;;;;;20.80;93.90;;;;;;4897417;29;19920;-77
2022/08/30 17:53:23;;;;;;;;;;;20.70;94.00;;;;;;4899914;29;19923;-78
2022/08/30 17:55:49;;;;;;;;;;;20.60;94.10;;;;;;4893188;29;20263;-77
2022/08/30 17:58:14;;;;;;;;;;;20.50;94.20;;;;;;4895886;29;20458;-76
2022/08/30 18:00:40;;;;;;;;;;;20.50;94.30;;;;;;4893847;29;19963;-78
2022/08/30 18:03:05;;;;;;;;;;;20.40;94.40;;;;;;4894556;29;19924;-77
2022/08/30 18:05:30;;;;;;;;;;;20.30;94.40;;;;;;4917252;29;19927;-78
2022/08/30 18:07:56;;;;;;;;;;;20.30;94.50;;;;;;4910235;29;20014;-78
2022/08/30 18:10:22;;;;;;;;;;;20.20;94.60;;;;;;4898715;29;19966;-77
2022/08/30 18:12:47;;;;;;;;;;;20.20;94.70;;;;;;4896522;29;19929;-79
2022/08/30 18:15:13;;;;;;;;;;;20.20;94.70;;;;;;4896575;29;19923;-78
2022/08/30 18:17:40;;;;;;;;;;;20.10;94.60;;;;;;4912319;29;19930;-78
2022/08/30 18:20:05;;;;;;;;;;;20.00;94.80;;;;;;4909943;29;19923;-78
2022/08/30 18:22:31;;;;;;;;;;;19.90;94.80;;;;;;4895084;29;19979;-78
2022/08/30 18:24:56;;;;;;;;;;;19.90;94.90;;;;;;4895575;29;19923;-78
2022/08/30 18:27:22;;;;;;;;;;;19.90;95.10;;;;;;4907867;29;21440;-78
2022/08/30 18:29:48;;;;;;;;;;;19.80;95.20;;;;;;4889932;29;20401;-76
2022/08/30 18:32:13;;;;;;;;;;;19.70;95.20;;;;;;4895662;29;20359;-77
2022/08/30 18:34:40;;;;;;;;;;;19.70;95.30;;;;;;4917853;29;20417;-77
2022/08/30 18:37:05;;;;;;;;;;;19.60;95.30;;;;;;4911452;29;19923;-77
2022/08/30 18:39:31;;;;;;;;;;;19.60;95.40;;;;;;4893604;29;20399;-77
2022/08/30 18:41:56;;;;;;;;;;;19.50;95.40;;;;;;4910280;29;20369;-76
2022/08/30 18:44:22;;;;;;;;;;;19.50;95.50;;;;;;4917460;29;19927;-78
2022/08/30 18:46:48;;;;;;;;;;;19.40;95.60;;;;;;4899022;29;20366;-77
2022/08/30 18:49:13;;;;;;;;;;;19.40;95.60;;;;;;4916397;29;19927;-77
2022/08/30 18:51:39;;;;;;;;;;;19.30;95.60;;;;;;4900034;29;20315;-77
2022/08/30 18:54:05;;;;;;;;;;;19.30;95.70;;;;;;4899290;29;19923;-78
2022/08/30 18:56:30;;;;;;;;;;;19.20;95.70;;;;;;4898531;29;20359;-77
2022/08/30 18:58:56;;;;;;;;;;;19.20;95.80;;;;;;4917030;29;20286;-77
2022/08/30 19:01:21;;;;;;;;;;;19.10;95.80;;;;;;4914755;29;20294;-77
2022/08/30 19:03:47;;;;;;;;;;;19.10;95.80;;;;;;4894969;29;19923;-78
2022/08/30 19:06:15;;;;;;;;;;;18.90;95.90;;;;;;4916294;29;19927;-76
2022/08/30 19:08:43;;;;;;;;;;;18.90;95.90;;;;;;4896535;29;20070;-76
2022/08/30 19:11:08;;;;;;;;;;;18.90;96.00;;;;;;4894910;29;19923;-78
2022/08/30 19:13:35;;;;;;;;;;;18.90;96.10;;;;;;4899073;29;20278;-78
2022/08/30 19:16:01;;;;;;;;;;;18.80;96.20;;;;;;4899038;29;19923;-79
2022/08/30 19:18:29;;;;;;;;;;;18.80;96.20;;;;;;4899492;29;19926;-78
2022/08/30 19:20:55;;;;;;;;;;;18.80;96.30;;;;;;4899305;29;19930;-77
2022/08/30 19:23:21;;;;;;;;;;;18.70;96.30;;;;;;4898680;29;20483;-80
2022/08/30 19:25:47;;;;;;;;;;;18.70;96.40;;;;;;4913162;29;19978;-75
2022/08/30 19:28:12;;;;;;;;;;;18.60;96.50;;;;;;4897836;29;20030;-76
2022/08/30 19:30:38;;;;;;;;;;;18.70;96.60;;;;;;4916695;29;20337;-76
2022/08/30 19:33:03;;;;;;;;;;;18.60;96.60;;;;;;4899020;29;20279;-76
2022/08/30 19:35:29;;;;;;;;;;;18.50;96.70;;;;;;4899810;29;20283;-75
2022/08/30 19:37:55;;;;;;;;;;;18.50;96.70;;;;;;4915285;29;20371;-76
2022/08/30 19:40:21;;;;;;;;;;;18.50;96.80;;;;;;4898371;29;20333;-76
2022/08/30 19:42:47;;;;;;;;;;;18.40;96.90;;;;;;4915420;29;19923;-76
2022/08/30 19:45:13;;;;;;;;;;;18.40;97.00;;;;;;4915367;29;19931;-76
2022/08/30 19:47:39;;;;;;;;;;;18.40;97.10;;;;;;4912564;29;19926;-76
2022/08/30 19:50:05;;;;;;;;;;;18.30;97.20;;;;;;4897758;29;19924;-77
2022/08/30 19:52:31;;;;;;;;;;;18.30;97.30;;;;;;4911863;29;19922;-77
2022/08/30 19:54:57;;;;;;;;;;;18.30;97.30;;;;;;4912888;29;20367;-76
2022/08/30 19:57:23;;;;;;;;;;;18.30;97.40;;;;;;4904659;29;19982;-77
2022/08/30 19:59:48;;;;;;;;;;;18.20;97.40;;;;;;4912549;29;19923;-78
2022/08/30 20:02:14;;;;;;;;;;;18.20;97.50;;;;;;4911805;29;19951;-78
2022/08/30 20:04:42;;;;;;;;;;;18.20;97.50;;;;;;4915396;29;19931;-77
2022/08/30 20:07:08;;;;;;;;;;;18.20;97.60;;;;;;4890074;29;19931;-77
2022/08/30 20:09:34;;;;;;;;;;;18.20;97.70;;;;;;4909575;29;19930;-77
2022/08/30 20:12:00;;;;;;;;;;;18.10;97.70;;;;;;4899998;29;19923;-78
2022/08/30 20:14:26;;;;;;;;;;;18.10;97.70;;;;;;4908530;29;19986;-77
2022/08/30 20:16:52;;;;;;;;;;;18.20;97.70;;;;;;4911163;29;19935;-77
2022/08/30 20:19:18;;;;;;;;;;;18.20;97.80;;;;;;4906816;29;20389;-77
2022/08/30 20:21:43;;;;;;;;;;;18.30;97.90;;;;;;4895154;29;19931;-77
2022/08/30 20:24:09;;;;;;;;;;;18.20;97.80;;;;;;4894651;29;19977;-77
2022/08/30 20:26:35;;;;;;;;;;;18.20;97.80;;;;;;4895843;29;20366;-77
2022/08/30 20:29:01;;;;;;;;;;;18.20;97.80;;;;;;4890955;29;19927;-76
2022/08/30 20:31:27;;;;;;;;;;;18.20;97.70;;;;;;4913170;29;19982;-79